Time;durP1;ratioP1;P1;durP2;ratioP2;P2;SDS_P1;SDS_P2;PMS_P1;PMS_P2;Temp;Humidity;BMP_temperature;BMP_pressure;BME280_temperature;BME280_humidity;BME280_pressure;Samples;Min_cycle;Max_cycle;Signal;HPM_P1;HPM_P2
2022/03/06 00:01:52;;;;;;;8.55;7.65;;;14.30;53.60;;;;;;4047494;29;20067;-64
2022/03/06 00:04:14;;;;;;;8.40;7.07;;;14.30;53.90;;;;;;4055605;29;20111;-65
2022/03/06 00:06:38;;;;;;;8.10;7.13;;;14.30;54.30;;;;;;4047789;29;20478;-64
2022/03/06 00:09:01;;;;;;;8.18;6.85;;;14.30;54.60;;;;;;4055648;29;20075;-64
2022/03/06 00:11:23;;;;;;;10.35;8.27;;;14.30;54.90;;;;;;4058400;29;20475;-64
2022/03/06 00:13:45;;;;;;;7.60;6.80;;;14.30;55.20;;;;;;4033233;29;20073;-65
2022/03/06 00:16:07;;;;;;;10.18;7.53;;;14.20;54.20;;;;;;4049351;29;20101;-65
2022/03/06 00:18:29;;;;;;;9.00;7.45;;;14.20;54.70;;;;;;4058698;29;20428;-64
2022/03/06 00:20:52;;;;;;;8.23;7.03;;;14.20;55.00;;;;;;4052880;29;20215;-65
2022/03/06 00:23:15;;;;;;;10.90;7.45;;;14.20;55.00;;;;;;4054366;29;20411;-66
2022/03/06 00:25:37;;;;;;;11.02;8.05;;;14.20;55.20;;;;;;4057472;29;20208;-64
2022/03/06 00:27:59;;;;;;;12.55;8.63;;;14.20;55.20;;;;;;4062306;29;20052;-64
2022/03/06 00:30:22;;;;;;;9.60;7.93;;;14.20;55.20;;;;;;4062639;29;20118;-65
2022/03/06 00:32:44;;;;;;;9.43;7.15;;;14.20;55.00;;;;;;4062117;29;20054;-65
2022/03/06 00:35:07;;;;;;;8.70;7.22;;;14.20;56.80;;;;;;4062176;29;20062;-65
2022/03/06 00:37:30;;;;;;;8.68;6.95;;;14.20;57.20;;;;;;4057729;29;20044;-64
2022/03/06 00:39:54;;;;;;;10.45;6.97;;;14.30;57.10;;;;;;4062714;29;20091;-65
2022/03/06 00:42:16;;;;;;;9.25;7.35;;;14.40;57.20;;;;;;4062961;29;20398;-65
2022/03/06 00:44:39;;;;;;;8.55;6.82;;;14.50;57.10;;;;;;4062502;29;20143;-66
2022/03/06 00:47:01;;;;;;;8.60;6.72;;;14.50;55.90;;;;;;4062325;29;20052;-64
2022/03/06 00:49:23;;;;;;;6.93;6.00;;;14.60;55.90;;;;;;4058746;29;20100;-64
2022/03/06 00:51:46;;;;;;;9.13;6.82;;;14.50;55.50;;;;;;4047157;29;20119;-65
2022/03/06 00:54:08;;;;;;;9.43;6.72;;;14.50;55.20;;;;;;4049870;29;20490;-65
2022/03/06 00:56:32;;;;;;;10.50;6.90;;;14.50;53.90;;;;;;4054630;29;20068;-64
2022/03/06 00:58:54;;;;;;;8.52;6.85;;;14.50;53.30;;;;;;4061610;29;20463;-65
2022/03/06 01:01:17;;;;;;;8.35;6.95;;;14.40;53.00;;;;;;4050971;29;20169;-64
2022/03/06 01:03:40;;;;;;;12.15;7.93;;;14.30;53.50;;;;;;4065561;29;20114;-64
2022/03/06 01:06:02;;;;;;;9.00;6.90;;;14.30;53.50;;;;;;4056092;29;20498;-65
2022/03/06 01:08:25;;;;;;;9.73;7.53;;;14.20;52.70;;;;;;4050101;29;20503;-64
2022/03/06 01:10:48;;;;;;;8.63;7.13;;;14.20;53.50;;;;;;4049914;29;20049;-65
2022/03/06 01:13:13;;;;;;;12.18;7.75;;;14.20;54.10;;;;;;4050302;29;20131;-65
2022/03/06 01:15:35;;;;;;;8.75;7.18;;;14.20;56.40;;;;;;4050363;29;20055;-64
2022/03/06 01:17:58;;;;;;;8.15;7.28;;;14.30;56.90;;;;;;4049589;29;20111;-64
2022/03/06 01:20:20;;;;;;;8.68;7.25;;;14.40;57.10;;;;;;4049701;29;20415;-64
2022/03/06 01:22:43;;;;;;;7.75;6.65;;;14.50;56.50;;;;;;4063972;29;20052;-66
2022/03/06 01:25:07;;;;;;;8.95;6.85;;;14.60;56.70;;;;;;4059638;29;20514;-65
2022/03/06 01:27:29;;;;;;;8.32;6.75;;;14.70;56.30;;;;;;4057318;29;20075;-65
2022/03/06 01:29:52;;;;;;;7.35;6.65;;;14.70;56.30;;;;;;4065104;29;20044;-64
2022/03/06 01:32:15;;;;;;;8.80;6.65;;;14.70;56.40;;;;;;4065090;29;20197;-65
2022/03/06 01:34:37;;;;;;;8.63;7.25;;;14.80;55.60;;;;;;4050807;29;20048;-65
2022/03/06 01:37:00;;;;;;;6.78;6.13;;;14.80;55.20;;;;;;4050216;29;20067;-63
2022/03/06 01:39:22;;;;;;;8.32;6.43;;;14.80;55.60;;;;;;4050465;29;20139;-63
2022/03/06 01:41:44;;;;;;;10.45;6.22;;;14.80;55.20;;;;;;4050245;29;20052;-64
2022/03/06 01:44:11;;;;;;;9.13;6.40;;;14.80;53.90;;;;;;4049689;29;20052;-64
2022/03/06 01:46:35;;;;;;;8.55;6.45;;;14.80;54.40;;;;;;4050580;29;20487;-63
2022/03/06 01:48:58;;;;;;;6.80;6.07;;;14.80;55.80;;;;;;4049675;29;20216;-63
2022/03/06 01:51:20;;;;;;;7.90;5.85;;;14.80;55.60;;;;;;4049544;29;20053;-63
2022/03/06 01:53:42;;;;;;;6.90;5.63;;;14.90;56.20;;;;;;4049177;29;20487;-64
2022/03/06 01:56:05;;;;;;;8.05;6.10;;;14.90;56.10;;;;;;4049069;29;20533;-63
2022/03/06 01:58:27;;;;;;;8.80;6.60;;;14.90;56.30;;;;;;4049122;29;20613;-64
2022/03/06 02:00:52;;;;;;;8.15;6.00;;;15.00;56.50;;;;;;4048506;29;20529;-64
2022/03/06 02:03:18;;;;;;;8.38;6.10;;;15.00;56.30;;;;;;4048966;29;20053;-63
2022/03/06 02:05:40;;;;;;;7.72;5.53;;;15.10;55.70;;;;;;4063582;29;20063;-63
2022/03/06 02:08:02;;;;;;;6.00;5.40;;;15.10;55.60;;;;;;4065138;29;20111;-63
2022/03/06 02:10:25;;;;;;;7.10;5.53;;;15.10;55.50;;;;;;4049780;29;20055;-63
2022/03/06 02:12:48;;;;;;;5.40;4.90;;;15.20;55.60;;;;;;4063825;29;20058;-64
2022/03/06 02:15:12;;;;;;;6.95;5.03;;;15.20;55.80;;;;;;4062419;29;20083;-63
2022/03/06 02:17:37;;;;;;;8.88;4.70;;;15.30;55.30;;;;;;4049449;29;20090;-63
2022/03/06 02:20:03;;;;;;;6.35;4.22;;;15.30;55.00;;;;;;4062799;29;20119;-64
2022/03/06 02:22:28;;;;;;;5.65;4.47;;;15.30;53.90;;;;;;4064253;29;20063;-63
2022/03/06 02:24:51;;;;;;;5.63;3.92;;;15.30;53.40;;;;;;4064853;29;20100;-63
2022/03/06 02:27:13;;;;;;;4.55;4.15;;;15.20;54.50;;;;;;4064921;29;20052;-63
2022/03/06 02:29:38;;;;;;;6.50;4.20;;;15.20;54.50;;;;;;4064890;29;20482;-64
2022/03/06 02:32:01;;;;;;;4.18;3.72;;;15.20;53.80;;;;;;4049202;29;20411;-63
2022/03/06 02:34:23;;;;;;;6.32;4.20;;;15.20;54.40;;;;;;4049225;29;20100;-64
2022/03/06 02:36:45;;;;;;;6.85;4.30;;;15.20;55.10;;;;;;4058974;29;20425;-64
2022/03/06 02:39:09;;;;;;;6.68;4.00;;;15.20;54.80;;;;;;4063739;29;20391;-63
2022/03/06 02:41:35;;;;;;;6.70;4.18;;;15.20;53.90;;;;;;4063846;29;20510;-65
2022/03/06 02:43:57;;;;;;;5.15;3.65;;;15.20;55.10;;;;;;4058573;29;20513;-63
2022/03/06 02:46:19;;;;;;;8.20;4.85;;;15.10;54.20;;;;;;4048772;29;20147;-64
2022/03/06 02:48:42;;;;;;;6.80;4.13;;;15.10;54.50;;;;;;4049429;29;20093;-64
2022/03/06 02:51:05;;;;;;;5.55;4.05;;;15.10;55.30;;;;;;4060823;29;20055;-63
2022/03/06 02:53:28;;;;;;;5.50;4.55;;;15.10;55.40;;;;;;4063789;29;20406;-63
2022/03/06 02:55:51;;;;;;;5.80;5.05;;;15.10;54.20;;;;;;4064403;29;20044;-63
2022/03/06 02:58:13;;;;;;;5.45;4.38;;;15.10;54.40;;;;;;4064117;29;20060;-63
2022/03/06 03:00:35;;;;;;;8.88;5.50;;;15.10;54.90;;;;;;4062879;29;20048;-64
2022/03/06 03:02:58;;;;;;;8.13;5.35;;;15.10;54.70;;;;;;4063725;29;20386;-64
2022/03/06 03:05:20;;;;;;;8.10;5.25;;;15.10;54.60;;;;;;4063437;29;20389;-63
2022/03/06 03:07:45;;;;;;;5.68;4.82;;;15.10;55.40;;;;;;4052460;29;20494;-64
2022/03/06 03:10:08;;;;;;;6.38;5.03;;;15.10;54.80;;;;;;4056640;29;20052;-63
2022/03/06 03:12:32;;;;;;;6.15;4.63;;;15.20;54.80;;;;;;4056296;29;20463;-66
2022/03/06 03:14:54;;;;;;;7.40;5.13;;;15.20;55.50;;;;;;4061932;29;20052;-63
2022/03/06 03:17:16;;;;;;;6.22;4.97;;;15.20;55.60;;;;;;4063592;29;20059;-63
2022/03/06 03:19:38;;;;;;;6.35;4.75;;;15.20;55.10;;;;;;4063628;29;20052;-64
2022/03/06 03:22:01;;;;;;;6.05;5.18;;;15.20;54.90;;;;;;4063177;29;20143;-64
2022/03/06 03:24:25;;;;;;;9.40;5.47;;;15.20;55.50;;;;;;4063756;29;20067;-64
2022/03/06 03:26:47;;;;;;;8.88;6.10;;;15.20;55.00;;;;;;4062410;29;20478;-63
2022/03/06 03:29:11;;;;;;;11.18;5.95;;;15.20;55.80;;;;;;4048116;29;20467;-65
2022/03/06 03:31:33;;;;;;;9.65;6.05;;;15.20;55.20;;;;;;4048061;29;20049;-64
2022/03/06 03:33:55;;;;;;;7.10;5.40;;;15.20;53.90;;;;;;4033539;29;20448;-68
2022/03/06 03:36:18;;;;;;;8.90;5.55;;;15.20;54.40;;;;;;4059793;29;20058;-64
2022/03/06 03:38:41;;;;;;;7.35;5.13;;;15.20;55.70;;;;;;4058408;29;20055;-64
2022/03/06 03:41:03;;;;;;;6.53;4.85;;;15.20;55.30;;;;;;4050986;29;20422;-64
2022/03/06 03:43:25;;;;;;;5.60;4.75;;;15.40;54.40;;;;;;4048030;29;20059;-63
2022/03/06 03:45:49;;;;;;;7.05;4.90;;;15.50;55.10;;;;;;4047740;29;20064;-64
2022/03/06 03:48:15;;;;;;;8.07;5.55;;;15.40;55.10;;;;;;4048082;29;20060;-64
2022/03/06 03:50:37;;;;;;;8.57;5.22;;;15.50;55.00;;;;;;4047986;29;20057;-64
2022/03/06 03:53:00;;;;;;;8.70;5.18;;;15.50;53.60;;;;;;4046628;29;20108;-64
2022/03/06 03:55:22;;;;;;;8.57;4.80;;;15.50;55.00;;;;;;4056252;29;20051;-63
2022/03/06 03:57:44;;;;;;;9.23;4.82;;;15.50;55.10;;;;;;4061421;29;20052;-63
2022/03/06 04:00:08;;;;;;;4.97;4.07;;;15.50;55.20;;;;;;4061844;29;20051;-64
2022/03/06 04:02:32;;;;;;;9.50;5.25;;;15.40;55.00;;;;;;4059015;29;20068;-63
2022/03/06 04:04:55;;;;;;;7.68;4.80;;;15.40;54.70;;;;;;4062052;29;20138;-64
2022/03/06 04:07:17;;;;;;;7.07;4.65;;;15.40;55.00;;;;;;4062693;29;20081;-63
2022/03/06 04:09:39;;;;;;;6.63;4.82;;;15.40;54.50;;;;;;4062835;29;20142;-63
2022/03/06 04:12:02;;;;;;;6.53;4.47;;;15.40;54.80;;;;;;4047634;29;20056;-64
2022/03/06 04:14:24;;;;;;;6.85;4.97;;;15.30;53.80;;;;;;4047564;29;20415;-62
2022/03/06 04:16:46;;;;;;;6.45;4.78;;;15.30;54.50;;;;;;4047464;29;20052;-63
2022/03/06 04:19:10;;;;;;;5.90;4.72;;;15.30;54.30;;;;;;4057984;29;20391;-63
2022/03/06 04:21:32;;;;;;;6.50;3.78;;;15.30;54.50;;;;;;4061381;29;20047;-65
2022/03/06 04:23:55;;;;;;;5.90;4.38;;;15.20;54.10;;;;;;4063275;29;20126;-63
2022/03/06 04:26:17;;;;;;;5.65;3.72;;;15.20;52.90;;;;;;4062379;29;20554;-64
2022/03/06 04:28:39;;;;;;;4.22;3.55;;;15.30;52.60;;;;;;4053830;29;20131;-64
2022/03/06 04:31:02;;;;;;;5.10;3.50;;;15.30;53.10;;;;;;4047685;29;20052;-64
2022/03/06 04:33:24;;;;;;;4.20;3.42;;;15.30;54.20;;;;;;4047575;29;20044;-64
2022/03/06 04:35:48;;;;;;;5.25;3.78;;;15.40;54.40;;;;;;4046882;29;20048;-63
2022/03/06 04:38:10;;;;;;;4.07;3.05;;;15.50;54.70;;;;;;4047624;29;20048;-64
2022/03/06 04:40:32;;;;;;;3.85;3.20;;;15.70;54.60;;;;;;4047731;29;20108;-63
2022/03/06 04:42:54;;;;;;;6.05;3.38;;;15.80;54.50;;;;;;4062637;29;20064;-63
2022/03/06 04:45:17;;;;;;;4.53;3.17;;;15.90;54.70;;;;;;4053028;29;20060;-63
2022/03/06 04:47:39;;;;;;;5.30;3.10;;;16.00;54.30;;;;;;4057387;29;20127;-63
2022/03/06 04:50:01;;;;;;;3.25;2.80;;;16.00;54.10;;;;;;4062178;29;20060;-63
2022/03/06 04:52:25;;;;;;;3.92;3.08;;;15.90;53.80;;;;;;4062333;29;20052;-63
2022/03/06 04:54:48;;;;;;;6.07;3.53;;;15.90;54.00;;;;;;4045701;29;20506;-63
2022/03/06 04:57:10;;;;;;;4.03;2.92;;;15.90;54.20;;;;;;4048124;29;20097;-63
2022/03/06 04:59:32;;;;;;;3.50;2.97;;;15.80;55.00;;;;;;4046842;29;20056;-65
2022/03/06 05:01:55;;;;;;;5.63;3.20;;;15.70;55.10;;;;;;4048210;29;20509;-63
2022/03/06 05:04:17;;;;;;;5.00;3.28;;;15.80;55.30;;;;;;4047026;29;20053;-63
2022/03/06 05:06:39;;;;;;;3.88;3.35;;;15.80;55.20;;;;;;4047054;29;20053;-63
2022/03/06 05:09:03;;;;;;;5.93;3.35;;;15.80;55.10;;;;;;4047539;29;20056;-63
2022/03/06 05:11:26;;;;;;;5.18;3.28;;;15.80;55.10;;;;;;4048105;29;20056;-64
2022/03/06 05:13:48;;;;;;;6.00;3.53;;;15.70;55.20;;;;;;4047178;29;20048;-63
2022/03/06 05:16:10;;;;;;;7.10;3.30;;;15.80;55.30;;;;;;4050765;29;20134;-63
2022/03/06 05:18:32;;;;;;;6.10;3.50;;;15.80;55.30;;;;;;4060287;29;20048;-63
2022/03/06 05:20:55;;;;;;;4.88;3.38;;;15.80;55.30;;;;;;4062130;29;20137;-63
2022/03/06 05:23:17;;;;;;;3.85;3.45;;;15.80;55.20;;;;;;4062053;29;20048;-63
2022/03/06 05:25:40;;;;;;;3.55;3.15;;;15.80;55.00;;;;;;4047579;29;20044;-64
2022/03/06 05:28:03;;;;;;;7.07;3.75;;;15.70;55.10;;;;;;4049942;29;20415;-64
2022/03/06 05:30:26;;;;;;;6.78;3.58;;;15.70;55.20;;;;;;4047141;29;20514;-64
2022/03/06 05:32:49;;;;;;;6.35;3.75;;;15.60;55.60;;;;;;4059017;29;20509;-63
2022/03/06 05:35:11;;;;;;;8.00;3.72;;;15.60;55.90;;;;;;4045239;29;20594;-63
2022/03/06 05:37:33;;;;;;;6.55;4.13;;;15.70;56.00;;;;;;4046820;29;20052;-64
2022/03/06 05:39:55;;;;;;;8.18;4.22;;;15.80;55.70;;;;;;4057242;29;20050;-65
2022/03/06 05:42:19;;;;;;;5.63;4.00;;;15.80;55.40;;;;;;4056964;29;20135;-64
2022/03/06 05:44:41;;;;;;;6.07;3.55;;;15.90;55.10;;;;;;4058341;29;20044;-65
2022/03/06 05:47:05;;;;;;;4.95;3.70;;;15.90;55.00;;;;;;4062261;29;20490;-63
2022/03/06 05:49:27;;;;;;;4.85;4.05;;;15.90;55.10;;;;;;4065002;29;20100;-63
2022/03/06 05:51:49;;;;;;;6.93;4.05;;;16.00;55.10;;;;;;4062807;29;20048;-64
2022/03/06 05:54:12;;;;;;;9.73;4.50;;;16.00;55.10;;;;;;4064776;29;20059;-63
2022/03/06 05:56:34;;;;;;;7.60;4.07;;;16.00;54.90;;;;;;4054151;29;20056;-64
2022/03/06 05:58:58;;;;;;;14.27;6.38;;;16.00;55.00;;;;;;4049360;29;20056;-64
2022/03/06 06:01:20;;;;;;;11.30;6.18;;;16.00;54.90;;;;;;4049763;29;20177;-64
2022/03/06 06:03:43;;;;;;;9.98;6.88;;;16.00;55.00;;;;;;4049499;29;20060;-67
2022/03/06 06:06:05;;;;;;;11.60;6.53;;;16.00;55.70;;;;;;4050714;29;20135;-65
2022/03/06 06:08:27;;;;;;;8.95;5.90;;;15.90;54.90;;;;;;4050985;29;20505;-63
2022/03/06 06:10:50;;;;;;;4.32;3.30;;;15.90;55.00;;;;;;4049363;29;20135;-64
2022/03/06 06:13:14;;;;;;;4.78;3.40;;;15.90;55.20;;;;;;4049228;29;20545;-65
2022/03/06 06:15:38;;;;;;;3.75;2.70;;;15.90;54.90;;;;;;4049515;29;20136;-65
2022/03/06 06:18:00;;;;;;;2.65;2.30;;;15.90;55.00;;;;;;4049521;29;20491;-65
2022/03/06 06:20:23;;;;;;;3.63;2.33;;;16.00;54.90;;;;;;4055348;29;20115;-65
2022/03/06 06:22:45;;;;;;;4.40;2.92;;;16.00;54.80;;;;;;4050310;29;20886;-65
2022/03/06 06:25:08;;;;;;;3.80;2.10;;;16.00;54.80;;;;;;4050614;29;20059;-63
2022/03/06 06:27:30;;;;;;;2.65;2.45;;;15.90;54.90;;;;;;4049760;29;20060;-63
2022/03/06 06:29:53;;;;;;;2.65;2.15;;;15.90;55.00;;;;;;4049930;29;20155;-64
2022/03/06 06:32:16;;;;;;;5.18;2.25;;;15.80;54.90;;;;;;4049466;29;20411;-65
2022/03/06 06:34:39;;;;;;;2.55;2.28;;;15.80;55.50;;;;;;4049578;29;20285;-65
2022/03/06 06:37:02;;;;;;;2.72;2.25;;;15.80;55.20;;;;;;4050873;29;20140;-68
2022/03/06 06:39:25;;;;;;;3.17;2.15;;;15.70;55.60;;;;;;4049792;29;20060;-65
2022/03/06 06:41:47;;;;;;;3.10;1.92;;;15.80;55.50;;;;;;4060079;29;20081;-64
2022/03/06 06:44:10;;;;;;;4.32;2.20;;;15.80;55.60;;;;;;4050059;29;20075;-65
2022/03/06 06:46:33;;;;;;;3.08;1.90;;;15.70;55.60;;;;;;4058602;29;20566;-63
2022/03/06 06:48:56;;;;;;;3.20;2.22;;;15.80;55.50;;;;;;4048702;29;20151;-66
2022/03/06 06:51:19;;;;;;;2.53;2.33;;;15.70;55.10;;;;;;4049551;29;20484;-64
2022/03/06 06:53:41;;;;;;;5.28;2.58;;;15.70;55.40;;;;;;4061460;29;20410;-65
2022/03/06 06:56:03;;;;;;;4.43;3.20;;;15.70;55.50;;;;;;4063935;29;20056;-65
2022/03/06 06:58:26;;;;;;;2.78;2.58;;;15.70;55.80;;;;;;4063973;29;20048;-64
2022/03/06 07:00:49;;;;;;;6.95;4.53;;;15.70;56.00;;;;;;4062196;29;20134;-64
2022/03/06 07:03:11;;;;;;;10.07;6.03;;;15.60;56.10;;;;;;4064235;29;20067;-64
2022/03/06 07:05:35;;;;;;;8.75;5.00;;;15.60;56.00;;;;;;4054228;29;20052;-64
2022/03/06 07:07:56;;;;;;;3.78;3.25;;;15.50;55.60;;;;;;4056673;29;20507;-64
2022/03/06 07:10:18;;;;;;;5.00;2.88;;;15.50;56.20;;;;;;4054440;29;20071;-65
2022/03/06 07:12:45;;;;;;;2.45;1.85;;;15.60;56.50;;;;;;4064046;29;20132;-65
2022/03/06 07:15:07;;;;;;;2.15;1.65;;;15.70;55.80;;;;;;4060661;29;20431;-65
2022/03/06 07:17:30;;;;;;;3.17;2.30;;;15.90;55.50;;;;;;4048618;29;20053;-65
2022/03/06 07:19:52;;;;;;;2.90;2.60;;;16.00;55.30;;;;;;4048635;29;20063;-64
2022/03/06 07:22:16;;;;;;;5.00;2.17;;;16.10;54.90;;;;;;4049188;29;20044;-64
2022/03/06 07:24:38;;;;;;;2.45;1.88;;;16.10;54.80;;;;;;4059703;29;20060;-64
2022/03/06 07:26:59;;;;;;;6.00;2.25;;;16.10;53.20;;;;;;4055831;29;20048;-64
2022/03/06 07:29:22;;;;;;;2.25;2.03;;;16.20;53.50;;;;;;4063907;29;20496;-64
2022/03/06 07:31:44;;;;;;;4.07;2.00;;;16.20;53.60;;;;;;4063844;29;20539;-64
2022/03/06 07:34:06;;;;;;;2.47;2.10;;;16.20;53.30;;;;;;4063881;29;20052;-64
2022/03/06 07:36:28;;;;;;;3.35;2.00;;;16.20;53.90;;;;;;4055910;29;20111;-65
2022/03/06 07:38:52;;;;;;;2.35;1.52;;;16.20;52.30;;;;;;4067285;29;20047;-61
2022/03/06 07:41:14;;;;;;;1.75;1.60;;;16.30;53.90;;;;;;4056504;29;20079;-61
2022/03/06 07:43:36;;;;;;;4.53;1.55;;;16.30;50.00;;;;;;4063029;29;20107;-61
2022/03/06 07:45:59;;;;;;;3.42;1.70;;;16.30;50.20;;;;;;4063424;29;20150;-62
2022/03/06 07:48:21;;;;;;;2.95;1.50;;;16.30;52.30;;;;;;4063962;29;20479;-61
2022/03/06 07:50:43;;;;;;;3.25;1.55;;;16.20;52.60;;;;;;4063584;29;20103;-61
2022/03/06 07:53:05;;;;;;;2.20;1.95;;;16.20;49.60;;;;;;4063479;29;20055;-60
2022/03/06 07:55:29;;;;;;;2.03;1.85;;;16.20;51.10;;;;;;4057820;29;20495;-61
2022/03/06 07:57:51;;;;;;;2.15;1.58;;;16.20;49.80;;;;;;4060364;29;20458;-62
2022/03/06 08:00:14;;;;;;;4.20;1.50;;;16.20;51.20;;;;;;4063575;29;20505;-62
2022/03/06 08:02:37;;;;;;;6.72;1.67;;;16.20;51.70;;;;;;4063261;29;20060;-66
2022/03/06 08:04:59;;;;;;;2.03;1.92;;;16.20;52.60;;;;;;4063378;29;20068;-64
2022/03/06 08:07:21;;;;;;;3.33;1.67;;;16.20;50.30;;;;;;4063082;29;20124;-63
2022/03/06 08:09:43;;;;;;;2.00;1.75;;;16.20;50.70;;;;;;4051862;29;20063;-65
2022/03/06 08:12:08;;;;;;;2.38;1.50;;;16.30;52.30;;;;;;4054109;29;20155;-62
2022/03/06 08:14:31;;;;;;;2.88;1.50;;;16.30;51.00;;;;;;4061617;29;20100;-63
2022/03/06 08:16:54;;;;;;;1.77;1.67;;;16.40;51.30;;;;;;4057887;29;20396;-64
2022/03/06 08:19:16;;;;;;;1.75;1.65;;;16.40;51.20;;;;;;4051495;29;20051;-62
2022/03/06 08:21:39;;;;;;;4.30;1.60;;;16.50;49.90;;;;;;4047290;29;20072;-62
2022/03/06 08:24:01;;;;;;;4.20;1.85;;;16.50;51.00;;;;;;4047628;29;20091;-61
2022/03/06 08:26:24;;;;;;;2.70;1.92;;;16.50;51.80;;;;;;4047649;29;20067;-61
2022/03/06 08:28:48;;;;;;;1.70;1.60;;;16.50;51.20;;;;;;4071149;29;20058;-61
2022/03/06 08:31:10;;;;;;;4.25;1.70;;;16.40;51.90;;;;;;4047984;29;20052;-62
2022/03/06 08:33:33;;;;;;;2.58;1.85;;;16.40;52.10;;;;;;4047715;29;20049;-62
2022/03/06 08:35:55;;;;;;;1.80;1.70;;;16.40;51.20;;;;;;4052810;29;20048;-62
2022/03/06 08:38:17;;;;;;;2.97;1.85;;;16.40;52.40;;;;;;4063439;29;20048;-62
2022/03/06 08:40:40;;;;;;;3.10;1.60;;;16.40;49.20;;;;;;4049083;29;20048;-62
2022/03/06 08:43:02;;;;;;;1.60;1.50;;;16.30;49.10;;;;;;4062643;29;20056;-63
2022/03/06 08:45:26;;;;;;;1.98;1.50;;;16.20;51.30;;;;;;4058354;29;20155;-62
2022/03/06 08:47:48;;;;;;;2.67;1.95;;;16.20;49.40;;;;;;4062931;29;20414;-62
2022/03/06 08:50:10;;;;;;;2.08;1.73;;;16.20;51.30;;;;;;4048722;29;20059;-62
2022/03/06 08:52:32;;;;;;;1.88;1.60;;;16.40;51.40;;;;;;4061511;29;20131;-61
2022/03/06 08:54:55;;;;;;;2.55;1.75;;;16.40;49.10;;;;;;4057212;29;20173;-62
2022/03/06 08:57:17;;;;;;;3.78;1.65;;;16.50;51.00;;;;;;4062665;29;20056;-61
2022/03/06 08:59:39;;;;;;;2.35;1.60;;;16.60;49.10;;;;;;4062720;29;20056;-61
2022/03/06 09:02:03;;;;;;;1.88;1.70;;;16.60;47.00;;;;;;4032741;29;20061;-61
2022/03/06 09:04:26;;;;;;;3.17;1.90;;;16.60;49.50;;;;;;4047112;29;20053;-61
2022/03/06 09:06:48;;;;;;;1.88;1.50;;;16.60;48.00;;;;;;4047042;29;20052;-61
2022/03/06 09:09:10;;;;;;;3.08;1.83;;;16.50;46.00;;;;;;4047232;29;20105;-61
2022/03/06 09:11:33;;;;;;;2.78;2.00;;;16.50;46.70;;;;;;4047223;29;20131;-61
2022/03/06 09:13:55;;;;;;;2.90;1.50;;;16.40;47.80;;;;;;4047870;29;20048;-61
2022/03/06 09:16:18;;;;;;;2.72;1.80;;;16.30;48.70;;;;;;4047325;29;20075;-61
2022/03/06 09:18:43;;;;;;;2.22;1.80;;;16.30;49.00;;;;;;4056526;29;20063;-60
2022/03/06 09:21:06;;;;;;;1.55;1.45;;;16.20;45.80;;;;;;4051687;29;20052;-63
2022/03/06 09:23:28;;;;;;;2.97;1.80;;;16.20;46.70;;;;;;4050650;29;20064;-63
2022/03/06 09:25:50;;;;;;;1.27;1.27;;;16.10;46.10;;;;;;4050540;29;20167;-63
2022/03/06 09:28:12;;;;;;;1.40;1.30;;;16.00;46.20;;;;;;4065783;29;20052;-62
2022/03/06 09:30:35;;;;;;;3.03;1.60;;;16.00;45.80;;;;;;4065526;29;20148;-61
2022/03/06 09:32:57;;;;;;;1.95;1.60;;;16.30;49.20;;;;;;4064667;29;20418;-63
2022/03/06 09:35:21;;;;;;;3.72;1.58;;;16.70;45.50;;;;;;4065632;29;20487;-61
2022/03/06 09:37:44;;;;;;;2.00;1.83;;;17.40;46.90;;;;;;4065689;29;20052;-61
2022/03/06 09:40:07;;;;;;;1.92;1.70;;;17.90;46.10;;;;;;4065658;29;20119;-61
2022/03/06 09:42:30;;;;;;;3.00;1.80;;;18.40;43.40;;;;;;4065199;29;20108;-62
2022/03/06 09:44:52;;;;;;;3.88;1.60;;;18.90;43.60;;;;;;4065704;29;20056;-61
2022/03/06 09:47:15;;;;;;;1.98;1.80;;;19.50;41.90;;;;;;4050390;29;20045;-62
2022/03/06 09:49:38;;;;;;;1.90;1.52;;;20.00;43.00;;;;;;4065553;29;20068;-62
2022/03/06 09:52:03;;;;;;;3.58;2.05;;;20.40;41.40;;;;;;4064197;29;20055;-61
2022/03/06 09:54:25;;;;;;;3.92;2.25;;;20.80;40.80;;;;;;4050897;29;20078;-61
2022/03/06 09:56:47;;;;;;;2.80;1.75;;;21.10;37.00;;;;;;4050704;29;20084;-62
2022/03/06 09:59:10;;;;;;;2.35;1.42;;;21.40;39.00;;;;;;4065121;29;20127;-62
2022/03/06 10:01:33;;;;;;;2.22;1.60;;;21.50;38.00;;;;;;4063251;29;20066;-62
2022/03/06 10:03:56;;;;;;;2.85;1.80;;;21.50;40.10;;;;;;4058953;29;20060;-62
2022/03/06 10:06:18;;;;;;;1.40;1.30;;;21.50;35.80;;;;;;4065006;29;20115;-62
2022/03/06 10:08:41;;;;;;;2.20;1.70;;;21.30;38.80;;;;;;4050969;29;20491;-62
2022/03/06 10:11:06;;;;;;;3.78;1.77;;;21.10;39.50;;;;;;4064852;29;20079;-64
2022/03/06 10:13:31;;;;;;;2.35;1.67;;;20.90;40.30;;;;;;4050913;29;20049;-63
2022/03/06 10:16:07;;;;;;;2.97;1.90;;;20.70;40.60;;;;;;4064963;29;20144;-62
2022/03/06 10:18:32;;;;;;;2.85;2.10;;;20.50;40.00;;;;;;4061885;29;20075;-62
2022/03/06 10:20:54;;;;;;;2.10;1.60;;;20.40;39.30;;;;;;4050141;29;20055;-62
2022/03/06 10:23:24;;;;;;;2.40;1.80;;;20.30;40.10;;;;;;4049733;29;20057;-62
2022/03/06 10:26:02;;;;;;;1.88;1.70;;;20.30;41.70;;;;;;4048787;29;20060;-61
2022/03/06 10:28:24;;;;;;;1.98;1.80;;;20.30;41.10;;;;;;4049276;29;20161;-62
2022/03/06 10:30:47;;;;;;;3.72;1.70;;;20.30;42.80;;;;;;4048151;29;20852;-67
2022/03/06 10:33:12;;;;;;;3.50;1.83;;;20.40;41.40;;;;;;4051975;29;20059;-67
2022/03/06 10:35:37;;;;;;;3.40;1.80;;;20.40;41.90;;;;;;4048194;29;20052;-67
2022/03/06 10:37:59;;;;;;;3.05;2.05;;;20.50;40.20;;;;;;4049552;29;20056;-67
2022/03/06 10:40:33;;;;;;;3.35;2.00;;;20.60;40.80;;;;;;4049607;29;20061;-67
2022/03/06 10:42:58;;;;;;;2.20;1.92;;;20.70;42.00;;;;;;4049319;29;20060;-67
2022/03/06 10:45:24;;;;;;;2.47;2.28;;;20.80;41.10;;;;;;4049208;29;20084;-67
2022/03/06 10:47:49;;;;;;;3.42;2.15;;;20.80;41.70;;;;;;4049087;29;20096;-67
2022/03/06 10:50:11;;;;;;;4.10;2.15;;;20.90;41.80;;;;;;4049700;29;20052;-67
2022/03/06 10:52:41;;;;;;;4.38;2.25;;;20.90;42.00;;;;;;4057430;29;20048;-63
2022/03/06 10:55:04;;;;;;;3.65;1.90;;;21.00;41.70;;;;;;4063862;29;20052;-62
2022/03/06 10:57:26;;;;;;;3.95;2.00;;;21.00;42.30;;;;;;4064232;29;20066;-62
2022/03/06 10:59:51;;;;;;;2.50;2.28;;;20.90;41.20;;;;;;4064522;29;20134;-62
2022/03/06 11:02:14;;;;;;;4.95;2.30;;;20.90;41.80;;;;;;4064534;29;20429;-62
2022/03/06 11:04:38;;;;;;;2.55;2.20;;;20.80;42.00;;;;;;4064268;29;20071;-62
2022/03/06 11:07:00;;;;;;;2.17;1.90;;;20.80;41.40;;;;;;4064123;29;20056;-62
2022/03/06 11:09:23;;;;;;;2.55;2.00;;;20.90;42.10;;;;;;4058981;29;20507;-62
2022/03/06 11:11:47;;;;;;;3.45;1.83;;;21.00;42.30;;;;;;4058026;29;20053;-61
2022/03/06 11:14:10;;;;;;;2.42;2.08;;;21.10;41.00;;;;;;4047085;29;20167;-62
2022/03/06 11:16:35;;;;;;;2.40;2.20;;;21.20;41.10;;;;;;4047496;29;20052;-61
2022/03/06 11:18:58;;;;;;;3.65;2.25;;;21.20;41.50;;;;;;4063467;29;20056;-61
2022/03/06 11:21:20;;;;;;;2.38;1.95;;;21.20;41.40;;;;;;4063959;29;20083;-63
2022/03/06 11:23:45;;;;;;;2.22;1.50;;;21.20;38.90;;;;;;4049646;29;20052;-61
2022/03/06 11:26:37;;;;;;;2.92;2.30;;;21.20;38.10;;;;;;4062436;29;20084;-61
2022/03/06 11:29:40;;;;;;;2.75;2.13;;;21.20;41.10;;;;;;4061161;29;20138;-61
2022/03/06 11:32:07;;;;;;;2.10;1.70;;;21.20;38.70;;;;;;4062565;29;20079;-62
2022/03/06 11:34:32;;;;;;;2.80;2.28;;;21.20;39.80;;;;;;4064786;29;20059;-61
2022/03/06 11:36:54;;;;;;;2.55;2.35;;;21.20;41.40;;;;;;4064105;29;20054;-62
2022/03/06 11:39:44;;;;;;;2.28;2.08;;;21.20;41.60;;;;;;4049418;29;20441;-62
2022/03/06 11:42:08;;;;;;;2.10;2.00;;;21.20;40.80;;;;;;4063072;29;20466;-61
2022/03/06 11:44:34;;;;;;;2.45;1.70;;;21.20;41.50;;;;;;4063344;29;20111;-62
2022/03/06 11:46:56;;;;;;;2.58;1.92;;;21.20;42.00;;;;;;4063671;29;20067;-61
2022/03/06 11:49:34;;;;;;;3.78;2.35;;;21.30;42.20;;;;;;4063642;29;20454;-61
2022/03/06 11:51:56;;;;;;;2.97;2.00;;;21.40;42.00;;;;;;4049258;29;20060;-67
2022/03/06 11:54:23;;;;;;;3.08;2.15;;;21.40;41.20;;;;;;4063534;29;20474;-67
2022/03/06 11:56:58;;;;;;;4.15;1.88;;;21.40;41.20;;;;;;4052210;29;20048;-66
2022/03/06 11:59:46;;;;;;;4.30;2.17;;;21.40;40.90;;;;;;4053206;29;20051;-66
2022/03/06 12:02:11;;;;;;;2.25;1.88;;;21.30;41.40;;;;;;4050033;29;20052;-65
2022/03/06 12:04:36;;;;;;;2.45;2.05;;;21.20;41.80;;;;;;4047935;29;20047;-65
2022/03/06 12:07:00;;;;;;;3.28;2.13;;;21.20;42.30;;;;;;4061483;29;20589;-64
2022/03/06 12:09:24;;;;;;;2.42;2.22;;;21.20;41.80;;;;;;4057124;29;20048;-64
2022/03/06 12:11:48;;;;;;;2.72;2.40;;;21.20;41.90;;;;;;4065975;29;20145;-64
2022/03/06 12:14:14;;;;;;;6.45;2.47;;;21.30;38.40;;;;;;4072790;29;20043;-65
2022/03/06 12:16:37;;;;;;;2.72;2.40;;;21.30;39.10;;;;;;4058640;29;20063;-65
2022/03/06 12:19:04;;;;;;;2.83;2.03;;;21.30;40.70;;;;;;4053687;29;20072;-64
2022/03/06 12:21:35;;;;;;;2.97;2.40;;;21.20;41.80;;;;;;4074584;29;20047;-65
2022/03/06 12:24:10;;;;;;;2.40;2.20;;;21.10;41.80;;;;;;4078693;29;20122;-64
2022/03/06 12:26:46;;;;;;;5.20;2.47;;;21.00;41.20;;;;;;4075523;29;20507;-63